sensor_id;sensor_type;location;lat;lon;timestamp;temperature;humidity
49321;DHT22;35817;44.498;0.166;2022-12-29T00:01:46;10.70;99.90
49321;DHT22;35817;44.498;0.166;2022-12-29T00:04:13;10.70;99.90
49321;DHT22;35817;44.498;0.166;2022-12-29T00:06:39;10.70;99.90
49321;DHT22;35817;44.498;0.166;2022-12-29T00:09:05;10.60;99.90
49321;DHT22;35817;44.498;0.166;2022-12-29T00:11:31;10.60;99.90
49321;DHT22;35817;44.498;0.166;2022-12-29T00:13:57;10.60;99.90
49321;DHT22;35817;44.498;0.166;2022-12-29T00:16:43;10.50;99.90
49321;DHT22;35817;44.498;0.166;2022-12-29T00:19:10;10.60;99.90
49321;DHT22;35817;44.498;0.166;2022-12-29T00:21:56;10.60;99.90
49321;DHT22;35817;44.498;0.166;2022-12-29T00:24:40;10.60;99.90
49321;DHT22;35817;44.498;0.166;2022-12-29T00:27:44;10.60;99.90
49321;DHT22;35817;44.498;0.166;2022-12-29T00:30:29;10.70;99.90
49321;DHT22;35817;44.498;0.166;2022-12-29T00:33:16;10.70;99.90
49321;DHT22;35817;44.498;0.166;2022-12-29T00:36:19;10.70;99.90
49321;DHT22;35817;44.498;0.166;2022-12-29T00:38:53;10.70;99.90
49321;DHT22;35817;44.498;0.166;2022-12-29T00:41:39;10.70;99.90
49321;DHT22;35817;44.498;0.166;2022-12-29T00:44:24;10.70;99.90
49321;DHT22;35817;44.498;0.166;2022-12-29T00:46:50;10.70;99.90
49321;DHT22;35817;44.498;0.166;2022-12-29T00:49:16;10.70;99.90
49321;DHT22;35817;44.498;0.166;2022-12-29T00:52:05;10.60;99.90
49321;DHT22;35817;44.498;0.166;2022-12-29T00:54:36;10.60;99.90
49321;DHT22;35817;44.498;0.166;2022-12-29T00:57:04;10.50;99.90
49321;DHT22;35817;44.498;0.166;2022-12-29T00:59:30;10.50;99.90
49321;DHT22;35817;44.498;0.166;2022-12-29T01:01:57;10.40;99.90
49321;DHT22;35817;44.498;0.166;2022-12-29T01:04:24;10.40;99.90
49321;DHT22;35817;44.498;0.166;2022-12-29T01:06:51;10.40;99.90
49321;DHT22;35817;44.498;0.166;2022-12-29T01:09:17;10.30;99.90
49321;DHT22;35817;44.498;0.166;2022-12-29T01:12:04;10.30;99.90
49321;DHT22;35817;44.498;0.166;2022-12-29T01:14:30;10.30;99.90
49321;DHT22;35817;44.498;0.166;2022-12-29T01:16:56;10.30;99.90
49321;DHT22;35817;44.498;0.166;2022-12-29T01:19:23;10.30;99.90
49321;DHT22;35817;44.498;0.166;2022-12-29T01:21:48;10.30;99.90
49321;DHT22;35817;44.498;0.166;2022-12-29T01:24:15;10.30;99.90
49321;DHT22;35817;44.498;0.166;2022-12-29T01:26:42;10.30;99.90
49321;DHT22;35817;44.498;0.166;2022-12-29T01:29:08;10.30;99.90
49321;DHT22;35817;44.498;0.166;2022-12-29T01:31:34;10.30;99.90
49321;DHT22;35817;44.498;0.166;2022-12-29T01:33:59;10.30;99.90
49321;DHT22;35817;44.498;0.166;2022-12-29T01:36:25;10.30;99.90
49321;DHT22;35817;44.498;0.166;2022-12-29T01:38:51;10.30;99.90
49321;DHT22;35817;44.498;0.166;2022-12-29T01:41:17;10.30;99.90
49321;DHT22;35817;44.498;0.166;2022-12-29T01:43:52;10.30;99.90
49321;DHT22;35817;44.498;0.166;2022-12-29T01:46:40;10.30;99.90
49321;DHT22;35817;44.498;0.166;2022-12-29T01:49:17;10.30;99.90
49321;DHT22;35817;44.498;0.166;2022-12-29T01:51:50;10.30;99.90
49321;DHT22;35817;44.498;0.166;2022-12-29T01:54:30;10.30;99.90
49321;DHT22;35817;44.498;0.166;2022-12-29T01:57:00;10.30;99.90
49321;DHT22;35817;44.498;0.166;2022-12-29T01:59:31;10.30;99.90
49321;DHT22;35817;44.498;0.166;2022-12-29T02:01:58;10.30;99.90
49321;DHT22;35817;44.498;0.166;2022-12-29T02:04:27;10.40;99.90
49321;DHT22;35817;44.498;0.166;2022-12-29T02:06:58;10.40;99.90
49321;DHT22;35817;44.498;0.166;2022-12-29T02:09:25;10.40;99.90
49321;DHT22;35817;44.498;0.166;2022-12-29T02:11:51;10.40;99.90
49321;DHT22;35817;44.498;0.166;2022-12-29T02:14:17;10.40;99.90
49321;DHT22;35817;44.498;0.166;2022-12-29T02:17:12;10.50;99.90
49321;DHT22;35817;44.498;0.166;2022-12-29T02:20:11;10.50;99.90
49321;DHT22;35817;44.498;0.166;2022-12-29T02:23:17;10.50;99.90
49321;DHT22;35817;44.498;0.166;2022-12-29T02:32:06;10.50;99.90
49321;DHT22;35817;44.498;0.166;2022-12-29T02:43:16;10.60;99.90
49321;DHT22;35817;44.498;0.166;2022-12-29T02:45:51;10.60;99.90
49321;DHT22;35817;44.498;0.166;2022-12-29T02:48:42;10.50;99.90
49321;DHT22;35817;44.498;0.166;2022-12-29T02:51:15;10.50;99.90
49321;DHT22;35817;44.498;0.166;2022-12-29T02:53:44;10.50;99.90
49321;DHT22;35817;44.498;0.166;2022-12-29T02:56:29;10.50;99.90
49321;DHT22;35817;44.498;0.166;2022-12-29T02:58:55;10.50;99.90
49321;DHT22;35817;44.498;0.166;2022-12-29T03:15:03;10.30;99.90
49321;DHT22;35817;44.498;0.166;2022-12-29T03:18:02;10.30;99.90
49321;DHT22;35817;44.498;0.166;2022-12-29T03:20:46;10.30;99.90
49321;DHT22;35817;44.498;0.166;2022-12-29T03:23:16;10.30;99.90
49321;DHT22;35817;44.498;0.166;2022-12-29T03:25:51;10.30;99.90
49321;DHT22;35817;44.498;0.166;2022-12-29T03:28:35;10.30;99.90
49321;DHT22;35817;44.498;0.166;2022-12-29T03:31:03;10.30;99.90
49321;DHT22;35817;44.498;0.166;2022-12-29T03:33:30;10.30;99.90
49321;DHT22;35817;44.498;0.166;2022-12-29T03:36:00;10.30;99.90
49321;DHT22;35817;44.498;0.166;2022-12-29T03:38:46;10.30;99.90
49321;DHT22;35817;44.498;0.166;2022-12-29T03:41:18;10.30;99.90
49321;DHT22;35817;44.498;0.166;2022-12-29T03:43:45;10.30;99.90
49321;DHT22;35817;44.498;0.166;2022-12-29T03:46:11;10.20;99.90
49321;DHT22;35817;44.498;0.166;2022-12-29T03:48:37;10.20;99.90
49321;DHT22;35817;44.498;0.166;2022-12-29T03:51:03;10.20;99.90
49321;DHT22;35817;44.498;0.166;2022-12-29T03:53:29;10.20;99.90
49321;DHT22;35817;44.498;0.166;2022-12-29T03:55:54;10.20;99.90
49321;DHT22;35817;44.498;0.166;2022-12-29T03:58:20;10.10;99.90
49321;DHT22;35817;44.498;0.166;2022-12-29T04:00:46;10.10;99.90
49321;DHT22;35817;44.498;0.166;2022-12-29T04:03:12;10.10;99.90
49321;DHT22;35817;44.498;0.166;2022-12-29T04:05:37;10.10;99.90
49321;DHT22;35817;44.498;0.166;2022-12-29T04:08:03;10.10;99.90
49321;DHT22;35817;44.498;0.166;2022-12-29T04:10:29;10.00;99.90
49321;DHT22;35817;44.498;0.166;2022-12-29T04:12:54;10.10;99.90
49321;DHT22;35817;44.498;0.166;2022-12-29T04:15:20;10.00;99.90
49321;DHT22;35817;44.498;0.166;2022-12-29T04:17:46;10.10;99.90
49321;DHT22;35817;44.498;0.166;2022-12-29T04:20:11;10.10;99.90
49321;DHT22;35817;44.498;0.166;2022-12-29T04:23:03;10.10;99.90
49321;DHT22;35817;44.498;0.166;2022-12-29T04:25:31;10.00;99.90
49321;DHT22;35817;44.498;0.166;2022-12-29T04:27:57;10.00;99.90
49321;DHT22;35817;44.498;0.166;2022-12-29T04:30:23;9.90;99.90
49321;DHT22;35817;44.498;0.166;2022-12-29T04:32:48;9.90;99.90
49321;DHT22;35817;44.498;0.166;2022-12-29T04:35:14;9.90;99.90
49321;DHT22;35817;44.498;0.166;2022-12-29T04:37:40;9.90;99.90
49321;DHT22;35817;44.498;0.166;2022-12-29T04:40:06;9.80;99.90
49321;DHT22;35817;44.498;0.166;2022-12-29T04:42:32;9.80;99.90
49321;DHT22;35817;44.498;0.166;2022-12-29T04:44:58;9.80;99.90
49321;DHT22;35817;44.498;0.166;2022-12-29T04:47:24;9.80;99.90
49321;DHT22;35817;44.498;0.166;2022-12-29T04:49:49;9.90;99.90
49321;DHT22;35817;44.498;0.166;2022-12-29T04:52:15;10.00;99.90
49321;DHT22;35817;44.498;0.166;2022-12-29T04:54:41;10.00;99.90
49321;DHT22;35817;44.498;0.166;2022-12-29T04:57:06;10.10;99.90
49321;DHT22;35817;44.498;0.166;2022-12-29T04:59:32;10.10;99.90
49321;DHT22;35817;44.498;0.166;2022-12-29T05:01:58;10.20;99.90
49321;DHT22;35817;44.498;0.166;2022-12-29T05:04:24;10.10;99.90
49321;DHT22;35817;44.498;0.166;2022-12-29T05:06:49;10.10;99.90
49321;DHT22;35817;44.498;0.166;2022-12-29T05:09:15;10.00;99.90
49321;DHT22;35817;44.498;0.166;2022-12-29T05:11:41;10.00;99.90
49321;DHT22;35817;44.498;0.166;2022-12-29T05:14:07;9.90;99.90
49321;DHT22;35817;44.498;0.166;2022-12-29T05:16:32;9.90;99.90
49321;DHT22;35817;44.498;0.166;2022-12-29T05:18:58;9.90;99.90
49321;DHT22;35817;44.498;0.166;2022-12-29T05:21:24;9.80;99.90
49321;DHT22;35817;44.498;0.166;2022-12-29T05:23:49;9.80;99.90
49321;DHT22;35817;44.498;0.166;2022-12-29T05:26:15;9.80;99.90
49321;DHT22;35817;44.498;0.166;2022-12-29T05:28:41;9.70;99.90
49321;DHT22;35817;44.498;0.166;2022-12-29T05:31:06;9.80;99.90
49321;DHT22;35817;44.498;0.166;2022-12-29T05:33:32;9.80;99.90
49321;DHT22;35817;44.498;0.166;2022-12-29T05:36:08;9.80;99.90
49321;DHT22;35817;44.498;0.166;2022-12-29T05:38:39;9.90;99.90
49321;DHT22;35817;44.498;0.166;2022-12-29T05:41:05;9.80;99.90
49321;DHT22;35817;44.498;0.166;2022-12-29T05:43:30;9.90;99.90
49321;DHT22;35817;44.498;0.166;2022-12-29T05:45:57;9.90;99.90
49321;DHT22;35817;44.498;0.166;2022-12-29T05:48:22;9.90;99.90
49321;DHT22;35817;44.498;0.166;2022-12-29T05:50:49;10.00;99.90
49321;DHT22;35817;44.498;0.166;2022-12-29T05:53:15;10.00;99.90
49321;DHT22;35817;44.498;0.166;2022-12-29T05:55:42;10.00;99.90
49321;DHT22;35817;44.498;0.166;2022-12-29T05:58:08;10.00;99.90
49321;DHT22;35817;44.498;0.166;2022-12-29T06:00:34;10.00;99.90
49321;DHT22;35817;44.498;0.166;2022-12-29T06:03:00;10.10;99.90
49321;DHT22;35817;44.498;0.166;2022-12-29T06:05:26;10.10;99.90
49321;DHT22;35817;44.498;0.166;2022-12-29T06:07:51;10.20;99.90
49321;DHT22;35817;44.498;0.166;2022-12-29T06:10:17;10.20;99.90
49321;DHT22;35817;44.498;0.166;2022-12-29T06:12:43;10.20;99.90
49321;DHT22;35817;44.498;0.166;2022-12-29T06:15:09;10.20;99.90
49321;DHT22;35817;44.498;0.166;2022-12-29T06:17:34;10.20;99.90
49321;DHT22;35817;44.498;0.166;2022-12-29T06:20:00;10.20;99.90
49321;DHT22;35817;44.498;0.166;2022-12-29T06:22:26;10.20;99.90
49321;DHT22;35817;44.498;0.166;2022-12-29T06:24:52;10.20;99.90
49321;DHT22;35817;44.498;0.166;2022-12-29T06:27:18;10.30;99.90
49321;DHT22;35817;44.498;0.166;2022-12-29T06:29:43;10.30;99.90
49321;DHT22;35817;44.498;0.166;2022-12-29T06:32:09;10.30;99.90
49321;DHT22;35817;44.498;0.166;2022-12-29T06:34:35;10.30;99.90
49321;DHT22;35817;44.498;0.166;2022-12-29T06:37:01;10.40;99.90
49321;DHT22;35817;44.498;0.166;2022-12-29T06:39:27;10.40;99.90
49321;DHT22;35817;44.498;0.166;2022-12-29T06:41:53;10.40;99.90
49321;DHT22;35817;44.498;0.166;2022-12-29T06:44:20;10.50;99.90
49321;DHT22;35817;44.498;0.166;2022-12-29T06:46:46;10.50;99.90
49321;DHT22;35817;44.498;0.166;2022-12-29T06:49:11;10.50;99.90
49321;DHT22;35817;44.498;0.166;2022-12-29T06:51:37;10.60;99.90
49321;DHT22;35817;44.498;0.166;2022-12-29T06:54:03;10.60;99.90
49321;DHT22;35817;44.498;0.166;2022-12-29T06:56:28;10.60;99.90
49321;DHT22;35817;44.498;0.166;2022-12-29T06:58:54;10.70;99.90
49321;DHT22;35817;44.498;0.166;2022-12-29T07:01:20;10.60;99.90
49321;DHT22;35817;44.498;0.166;2022-12-29T07:03:46;10.60;99.90
49321;DHT22;35817;44.498;0.166;2022-12-29T07:06:12;10.60;99.90
49321;DHT22;35817;44.498;0.166;2022-12-29T07:08:37;10.60;99.90
49321;DHT22;35817;44.498;0.166;2022-12-29T07:11:04;10.50;99.90
49321;DHT22;35817;44.498;0.166;2022-12-29T07:13:30;10.40;99.90
49321;DHT22;35817;44.498;0.166;2022-12-29T07:15:56;10.30;99.90
49321;DHT22;35817;44.498;0.166;2022-12-29T07:18:21;10.20;99.90
49321;DHT22;35817;44.498;0.166;2022-12-29T07:20:47;10.20;99.90
49321;DHT22;35817;44.498;0.166;2022-12-29T07:23:13;10.20;99.90
49321;DHT22;35817;44.498;0.166;2022-12-29T07:25:39;10.10;99.90
49321;DHT22;35817;44.498;0.166;2022-12-29T07:28:06;10.10;99.90
49321;DHT22;35817;44.498;0.166;2022-12-29T07:30:32;10.10;99.90
49321;DHT22;35817;44.498;0.166;2022-12-29T07:32:58;10.00;99.90
49321;DHT22;35817;44.498;0.166;2022-12-29T07:35:24;10.00;99.90
49321;DHT22;35817;44.498;0.166;2022-12-29T07:37:49;9.90;99.90
49321;DHT22;35817;44.498;0.166;2022-12-29T07:40:15;9.90;99.90
49321;DHT22;35817;44.498;0.166;2022-12-29T07:42:44;10.00;99.90
49321;DHT22;35817;44.498;0.166;2022-12-29T07:45:10;10.00;99.90
49321;DHT22;35817;44.498;0.166;2022-12-29T07:47:35;10.00;99.90
49321;DHT22;35817;44.498;0.166;2022-12-29T07:50:01;10.10;99.90
49321;DHT22;35817;44.498;0.166;2022-12-29T07:52:27;10.10;99.90
49321;DHT22;35817;44.498;0.166;2022-12-29T07:54:55;10.10;99.90
49321;DHT22;35817;44.498;0.166;2022-12-29T07:57:23;10.20;99.90
49321;DHT22;35817;44.498;0.166;2022-12-29T07:59:49;10.20;99.90
49321;DHT22;35817;44.498;0.166;2022-12-29T08:02:15;10.20;99.90
49321;DHT22;35817;44.498;0.166;2022-12-29T08:04:41;10.20;99.90
49321;DHT22;35817;44.498;0.166;2022-12-29T08:07:06;10.20;99.90
49321;DHT22;35817;44.498;0.166;2022-12-29T08:09:32;10.20;99.90
49321;DHT22;35817;44.498;0.166;2022-12-29T08:11:58;10.20;99.90
49321;DHT22;35817;44.498;0.166;2022-12-29T08:14:26;10.30;99.90
49321;DHT22;35817;44.498;0.166;2022-12-29T08:16:54;10.30;99.90
49321;DHT22;35817;44.498;0.166;2022-12-29T08:19:29;10.30;99.90
49321;DHT22;35817;44.498;0.166;2022-12-29T08:21:55;10.40;99.90
49321;DHT22;35817;44.498;0.166;2022-12-29T08:24:23;10.40;99.90
49321;DHT22;35817;44.498;0.166;2022-12-29T08:26:51;10.50;99.90
49321;DHT22;35817;44.498;0.166;2022-12-29T08:29:17;10.50;99.90
49321;DHT22;35817;44.498;0.166;2022-12-29T08:35:13;10.60;99.90
49321;DHT22;35817;44.498;0.166;2022-12-29T08:37:38;10.70;99.90
49321;DHT22;35817;44.498;0.166;2022-12-29T08:40:05;10.80;99.90
49321;DHT22;35817;44.498;0.166;2022-12-29T08:42:31;10.80;99.90
49321;DHT22;35817;44.498;0.166;2022-12-29T08:44:58;10.90;99.90
49321;DHT22;35817;44.498;0.166;2022-12-29T08:47:24;10.90;99.90
49321;DHT22;35817;44.498;0.166;2022-12-29T08:49:50;11.00;99.90
49321;DHT22;35817;44.498;0.166;2022-12-29T08:52:16;11.00;99.90
49321;DHT22;35817;44.498;0.166;2022-12-29T08:54:41;11.00;99.90
49321;DHT22;35817;44.498;0.166;2022-12-29T08:57:07;11.10;99.90
49321;DHT22;35817;44.498;0.166;2022-12-29T08:59:36;11.20;99.90
49321;DHT22;35817;44.498;0.166;2022-12-29T09:02:02;11.20;99.90
49321;DHT22;35817;44.498;0.166;2022-12-29T09:04:28;11.30;99.90
49321;DHT22;35817;44.498;0.166;2022-12-29T09:06:54;11.40;99.90
49321;DHT22;35817;44.498;0.166;2022-12-29T09:09:20;11.60;99.90
49321;DHT22;35817;44.498;0.166;2022-12-29T09:11:46;11.80;99.90
49321;DHT22;35817;44.498;0.166;2022-12-29T09:14:12;12.10;99.90
49321;DHT22;35817;44.498;0.166;2022-12-29T09:16:39;12.30;99.90
49321;DHT22;35817;44.498;0.166;2022-12-29T09:19:05;12.50;99.90
49321;DHT22;35817;44.498;0.166;2022-12-29T09:21:31;12.70;99.90
49321;DHT22;35817;44.498;0.166;2022-12-29T09:23:57;12.80;99.90
49321;DHT22;35817;44.498;0.166;2022-12-29T09:26:22;12.90;99.90
49321;DHT22;35817;44.498;0.166;2022-12-29T09:28:48;13.00;99.90
49321;DHT22;35817;44.498;0.166;2022-12-29T09:31:14;13.00;99.90
49321;DHT22;35817;44.498;0.166;2022-12-29T09:33:39;13.00;99.90
49321;DHT22;35817;44.498;0.166;2022-12-29T09:36:05;13.00;99.90
49321;DHT22;35817;44.498;0.166;2022-12-29T09:38:31;13.00;99.90
49321;DHT22;35817;44.498;0.166;2022-12-29T09:41:20;12.90;99.90
49321;DHT22;35817;44.498;0.166;2022-12-29T09:43:59;13.00;99.90
49321;DHT22;35817;44.498;0.166;2022-12-29T09:46:34;13.00;99.90
49321;DHT22;35817;44.498;0.166;2022-12-29T09:49:08;13.00;99.90
49321;DHT22;35817;44.498;0.166;2022-12-29T09:51:37;13.10;99.90
49321;DHT22;35817;44.498;0.166;2022-12-29T09:56:49;13.00;99.90
49321;DHT22;35817;44.498;0.166;2022-12-29T10:04:49;12.90;99.90
49321;DHT22;35817;44.498;0.166;2022-12-29T10:07:45;13.00;99.90
49321;DHT22;35817;44.498;0.166;2022-12-29T10:10:33;13.10;99.90
49321;DHT22;35817;44.498;0.166;2022-12-29T10:13:23;13.20;99.90
49321;DHT22;35817;44.498;0.166;2022-12-29T10:24:12;13.30;99.90
49321;DHT22;35817;44.498;0.166;2022-12-29T10:26:41;13.20;99.90
49321;DHT22;35817;44.498;0.166;2022-12-29T10:29:19;13.20;99.90
49321;DHT22;35817;44.498;0.166;2022-12-29T10:31:56;13.20;99.90
49321;DHT22;35817;44.498;0.166;2022-12-29T10:34:25;13.10;99.90
49321;DHT22;35817;44.498;0.166;2022-12-29T10:36:58;13.00;99.90
49321;DHT22;35817;44.498;0.166;2022-12-29T10:39:43;13.00;99.90
49321;DHT22;35817;44.498;0.166;2022-12-29T10:42:37;12.90;99.90
49321;DHT22;35817;44.498;0.166;2022-12-29T10:45:03;12.90;99.90
49321;DHT22;35817;44.498;0.166;2022-12-29T10:47:35;12.80;99.90
49321;DHT22;35817;44.498;0.166;2022-12-29T10:50:03;12.80;99.90
49321;DHT22;35817;44.498;0.166;2022-12-29T10:52:30;12.70;99.90
49321;DHT22;35817;44.498;0.166;2022-12-29T10:57:36;12.60;99.90
49321;DHT22;35817;44.498;0.166;2022-12-29T11:00:15;12.60;99.90
49321;DHT22;35817;44.498;0.166;2022-12-29T11:12:28;12.70;99.90
49321;DHT22;35817;44.498;0.166;2022-12-29T11:15:14;12.70;99.90
49321;DHT22;35817;44.498;0.166;2022-12-29T11:17:53;12.80;99.90
49321;DHT22;35817;44.498;0.166;2022-12-29T11:20:36;12.80;99.90
49321;DHT22;35817;44.498;0.166;2022-12-29T11:23:29;12.80;99.90
49321;DHT22;35817;44.498;0.166;2022-12-29T11:26:15;12.80;99.90
49321;DHT22;35817;44.498;0.166;2022-12-29T11:28:45;12.80;99.90
49321;DHT22;35817;44.498;0.166;2022-12-29T11:31:15;12.80;99.90
49321;DHT22;35817;44.498;0.166;2022-12-29T11:33:42;12.80;99.90
49321;DHT22;35817;44.498;0.166;2022-12-29T11:36:19;12.90;99.90
49321;DHT22;35817;44.498;0.166;2022-12-29T11:38:51;12.90;99.90
49321;DHT22;35817;44.498;0.166;2022-12-29T11:41:26;13.00;99.90
49321;DHT22;35817;44.498;0.166;2022-12-29T11:43:55;13.00;99.90
49321;DHT22;35817;44.498;0.166;2022-12-29T11:46:32;13.10;99.90
49321;DHT22;35817;44.498;0.166;2022-12-29T11:48:59;13.10;99.90
49321;DHT22;35817;44.498;0.166;2022-12-29T11:51:46;13.20;99.90
49321;DHT22;35817;44.498;0.166;2022-12-29T11:54:39;13.20;99.90
49321;DHT22;35817;44.498;0.166;2022-12-29T11:57:16;13.30;99.90
49321;DHT22;35817;44.498;0.166;2022-12-29T11:59:50;13.40;99.90
49321;DHT22;35817;44.498;0.166;2022-12-29T12:04:49;13.60;99.90
49321;DHT22;35817;44.498;0.166;2022-12-29T12:10:06;13.80;99.90
49321;DHT22;35817;44.498;0.166;2022-12-29T12:13:05;13.90;99.90
49321;DHT22;35817;44.498;0.166;2022-12-29T12:15:40;13.90;99.90
49321;DHT22;35817;44.498;0.166;2022-12-29T12:27:28;14.20;99.90
49321;DHT22;35817;44.498;0.166;2022-12-29T12:29:59;14.20;99.90
49321;DHT22;35817;44.498;0.166;2022-12-29T12:35:15;14.20;99.90
49321;DHT22;35817;44.498;0.166;2022-12-29T12:41:13;13.90;99.90
49321;DHT22;35817;44.498;0.166;2022-12-29T12:43:51;13.90;99.90
49321;DHT22;35817;44.498;0.166;2022-12-29T13:07:06;14.30;99.90
49321;DHT22;35817;44.498;0.166;2022-12-29T13:12:45;14.50;99.90
49321;DHT22;35817;44.498;0.166;2022-12-29T13:20:52;14.60;99.90
49321;DHT22;35817;44.498;0.166;2022-12-29T13:26:22;14.60;99.90
49321;DHT22;35817;44.498;0.166;2022-12-29T13:29:12;14.80;99.90
49321;DHT22;35817;44.498;0.166;2022-12-29T13:35:01;14.80;99.90
49321;DHT22;35817;44.498;0.166;2022-12-29T13:37:31;14.80;99.90
49321;DHT22;35817;44.498;0.166;2022-12-29T13:40:11;14.90;99.90
49321;DHT22;35817;44.498;0.166;2022-12-29T13:42:38;15.00;99.90
49321;DHT22;35817;44.498;0.166;2022-12-29T13:45:12;15.00;99.90
49321;DHT22;35817;44.498;0.166;2022-12-29T13:48:07;14.80;99.90
49321;DHT22;35817;44.498;0.166;2022-12-29T13:50:33;14.80;99.90
49321;DHT22;35817;44.498;0.166;2022-12-29T13:53:03;14.70;99.90
49321;DHT22;35817;44.498;0.166;2022-12-29T13:55:51;14.70;99.90
49321;DHT22;35817;44.498;0.166;2022-12-29T14:01:07;14.70;99.90
49321;DHT22;35817;44.498;0.166;2022-12-29T14:03:50;14.80;99.90
49321;DHT22;35817;44.498;0.166;2022-12-29T14:06:21;15.00;99.90
49321;DHT22;35817;44.498;0.166;2022-12-29T14:08:49;15.20;99.90
49321;DHT22;35817;44.498;0.166;2022-12-29T14:11:18;15.30;99.90
49321;DHT22;35817;44.498;0.166;2022-12-29T14:13:46;15.20;99.90
49321;DHT22;35817;44.498;0.166;2022-12-29T14:18:50;15.20;99.90
49321;DHT22;35817;44.498;0.166;2022-12-29T14:23:44;15.10;99.90
49321;DHT22;35817;44.498;0.166;2022-12-29T14:26:37;15.00;99.90
49321;DHT22;35817;44.498;0.166;2022-12-29T14:31:52;14.50;99.90
49321;DHT22;35817;44.498;0.166;2022-12-29T14:37:02;14.10;99.90
49321;DHT22;35817;44.498;0.166;2022-12-29T14:44:36;13.40;99.90
49321;DHT22;35817;44.498;0.166;2022-12-29T14:49:45;12.90;99.90
49321;DHT22;35817;44.498;0.166;2022-12-29T14:54:48;12.60;99.90
49321;DHT22;35817;44.498;0.166;2022-12-29T14:57:26;12.60;99.90
49321;DHT22;35817;44.498;0.166;2022-12-29T14:59:56;12.60;99.90
49321;DHT22;35817;44.498;0.166;2022-12-29T15:02:26;12.60;99.90
49321;DHT22;35817;44.498;0.166;2022-12-29T15:05:00;12.60;99.90
49321;DHT22;35817;44.498;0.166;2022-12-29T15:07:27;12.50;99.90
49321;DHT22;35817;44.498;0.166;2022-12-29T15:10:00;12.40;99.90
49321;DHT22;35817;44.498;0.166;2022-12-29T15:12:39;12.40;99.90
49321;DHT22;35817;44.498;0.166;2022-12-29T15:15:21;12.40;99.90
49321;DHT22;35817;44.498;0.166;2022-12-29T15:17:47;12.40;99.90
49321;DHT22;35817;44.498;0.166;2022-12-29T15:20:29;12.50;99.90
49321;DHT22;35817;44.498;0.166;2022-12-29T15:22:56;12.40;99.90
49321;DHT22;35817;44.498;0.166;2022-12-29T15:25:23;12.40;99.90
49321;DHT22;35817;44.498;0.166;2022-12-29T15:28:00;12.40;99.90
49321;DHT22;35817;44.498;0.166;2022-12-29T15:30:26;12.40;99.90
49321;DHT22;35817;44.498;0.166;2022-12-29T15:32:52;12.30;99.90
49321;DHT22;35817;44.498;0.166;2022-12-29T15:35:37;12.30;99.90
49321;DHT22;35817;44.498;0.166;2022-12-29T15:38:15;12.30;99.90
49321;DHT22;35817;44.498;0.166;2022-12-29T15:40:44;12.20;99.90
49321;DHT22;35817;44.498;0.166;2022-12-29T15:43:38;12.20;99.90
49321;DHT22;35817;44.498;0.166;2022-12-29T15:46:07;12.10;99.90
49321;DHT22;35817;44.498;0.166;2022-12-29T15:48:33;12.10;99.90
49321;DHT22;35817;44.498;0.166;2022-12-29T15:51:00;12.00;99.90
49321;DHT22;35817;44.498;0.166;2022-12-29T15:53:32;12.00;99.90
49321;DHT22;35817;44.498;0.166;2022-12-29T15:56:06;12.00;99.90
49321;DHT22;35817;44.498;0.166;2022-12-29T15:58:50;11.90;99.90
49321;DHT22;35817;44.498;0.166;2022-12-29T16:01:33;11.90;99.90
49321;DHT22;35817;44.498;0.166;2022-12-29T16:04:01;11.80;99.90
49321;DHT22;35817;44.498;0.166;2022-12-29T16:06:33;11.80;99.90
49321;DHT22;35817;44.498;0.166;2022-12-29T16:11:40;11.80;99.90
49321;DHT22;35817;44.498;0.166;2022-12-29T16:14:09;11.80;99.90
49321;DHT22;35817;44.498;0.166;2022-12-29T16:16:41;11.80;99.90
49321;DHT22;35817;44.498;0.166;2022-12-29T16:19:19;11.90;99.90
49321;DHT22;35817;44.498;0.166;2022-12-29T16:21:47;11.90;99.90
49321;DHT22;35817;44.498;0.166;2022-12-29T16:24:20;11.90;99.90
49321;DHT22;35817;44.498;0.166;2022-12-29T16:29:25;11.80;99.90
49321;DHT22;35817;44.498;0.166;2022-12-29T16:31:55;11.80;99.90
49321;DHT22;35817;44.498;0.166;2022-12-29T16:34:43;11.80;99.90
49321;DHT22;35817;44.498;0.166;2022-12-29T16:37:30;11.80;99.90
49321;DHT22;35817;44.498;0.166;2022-12-29T16:42:55;11.80;99.90
49321;DHT22;35817;44.498;0.166;2022-12-29T16:50:36;11.80;99.90
49321;DHT22;35817;44.498;0.166;2022-12-29T16:53:03;11.70;99.90
49321;DHT22;35817;44.498;0.166;2022-12-29T16:55:30;11.70;99.90
49321;DHT22;35817;44.498;0.166;2022-12-29T16:57:56;11.70;99.90
49321;DHT22;35817;44.498;0.166;2022-12-29T17:00:27;11.60;99.90
49321;DHT22;35817;44.498;0.166;2022-12-29T17:02:57;11.60;99.90
49321;DHT22;35817;44.498;0.166;2022-12-29T17:05:24;11.60;99.90
49321;DHT22;35817;44.498;0.166;2022-12-29T17:07:50;11.50;99.90
49321;DHT22;35817;44.498;0.166;2022-12-29T17:10:20;11.50;99.90
49321;DHT22;35817;44.498;0.166;2022-12-29T17:13:07;11.50;99.90
49321;DHT22;35817;44.498;0.166;2022-12-29T17:15:33;11.50;99.90
49321;DHT22;35817;44.498;0.166;2022-12-29T17:18:00;11.40;99.90
49321;DHT22;35817;44.498;0.166;2022-12-29T17:20:28;11.40;99.90
49321;DHT22;35817;44.498;0.166;2022-12-29T17:22:54;11.40;99.90
49321;DHT22;35817;44.498;0.166;2022-12-29T17:27:48;11.40;99.90
49321;DHT22;35817;44.498;0.166;2022-12-29T17:30:18;11.40;99.90
49321;DHT22;35817;44.498;0.166;2022-12-29T17:32:50;11.40;99.90
49321;DHT22;35817;44.498;0.166;2022-12-29T17:35:20;11.30;99.90
49321;DHT22;35817;44.498;0.166;2022-12-29T17:37:47;11.30;99.90
49321;DHT22;35817;44.498;0.166;2022-12-29T17:40:15;11.30;99.90
49321;DHT22;35817;44.498;0.166;2022-12-29T17:42:46;11.30;99.90
49321;DHT22;35817;44.498;0.166;2022-12-29T17:45:19;11.30;99.90
49321;DHT22;35817;44.498;0.166;2022-12-29T17:47:45;11.30;99.90
49321;DHT22;35817;44.498;0.166;2022-12-29T17:50:13;11.30;99.90
49321;DHT22;35817;44.498;0.166;2022-12-29T17:52:39;11.30;99.90
49321;DHT22;35817;44.498;0.166;2022-12-29T17:55:05;11.30;99.90
49321;DHT22;35817;44.498;0.166;2022-12-29T17:57:31;11.30;99.90
49321;DHT22;35817;44.498;0.166;2022-12-29T17:59:57;11.30;99.90
49321;DHT22;35817;44.498;0.166;2022-12-29T18:02:29;11.20;99.90
49321;DHT22;35817;44.498;0.166;2022-12-29T18:04:56;11.30;99.90
49321;DHT22;35817;44.498;0.166;2022-12-29T18:07:23;11.20;99.90
49321;DHT22;35817;44.498;0.166;2022-12-29T18:09:50;11.20;99.90
49321;DHT22;35817;44.498;0.166;2022-12-29T18:12:46;11.30;99.90
49321;DHT22;35817;44.498;0.166;2022-12-29T18:15:27;11.20;99.90
49321;DHT22;35817;44.498;0.166;2022-12-29T18:18:01;11.20;99.90
49321;DHT22;35817;44.498;0.166;2022-12-29T18:20:28;11.20;99.90
49321;DHT22;35817;44.498;0.166;2022-12-29T18:22:57;11.10;99.90
49321;DHT22;35817;44.498;0.166;2022-12-29T18:25:51;11.20;99.90
49321;DHT22;35817;44.498;0.166;2022-12-29T18:28:18;11.10;99.90
49321;DHT22;35817;44.498;0.166;2022-12-29T18:30:44;11.10;99.90
49321;DHT22;35817;44.498;0.166;2022-12-29T18:33:15;11.10;99.90